sensor_id;sensor_type;location;lat;lon;timestamp;temperature;humidity
16273;DHT22;8244;50.044;9.006;2023-06-22T00:04:57;23.70;99.90
16273;DHT22;8244;50.044;9.006;2023-06-22T00:09:59;23.40;99.90
16273;DHT22;8244;50.044;9.006;2023-06-22T00:15:02;23.20;99.90
16273;DHT22;8244;50.044;9.006;2023-06-22T00:20:05;23.10;99.90
16273;DHT22;8244;50.044;9.006;2023-06-22T00:25:08;23.10;99.90
16273;DHT22;8244;50.044;9.006;2023-06-22T00:30:12;23.20;99.90
16273;DHT22;8244;50.044;9.006;2023-06-22T00:35:14;23.30;99.90
16273;DHT22;8244;50.044;9.006;2023-06-22T00:40:16;23.30;99.90
16273;DHT22;8244;50.044;9.006;2023-06-22T00:45:23;23.30;99.90
16273;DHT22;8244;50.044;9.006;2023-06-22T00:50:27;23.30;99.90
16273;DHT22;8244;50.044;9.006;2023-06-22T00:55:29;23.30;99.90
16273;DHT22;8244;50.044;9.006;2023-06-22T01:00:32;23.30;99.90
16273;DHT22;8244;50.044;9.006;2023-06-22T01:05:35;23.20;99.90
16273;DHT22;8244;50.044;9.006;2023-06-22T01:10:40;23.10;99.90
16273;DHT22;8244;50.044;9.006;2023-06-22T01:15:46;23.10;99.90
16273;DHT22;8244;50.044;9.006;2023-06-22T01:20:51;23.10;99.90
16273;DHT22;8244;50.044;9.006;2023-06-22T01:26:01;23.10;99.90
16273;DHT22;8244;50.044;9.006;2023-06-22T01:31:05;23.00;99.90
16273;DHT22;8244;50.044;9.006;2023-06-22T01:36:10;22.90;99.90
16273;DHT22;8244;50.044;9.006;2023-06-22T01:41:12;22.80;99.90
16273;DHT22;8244;50.044;9.006;2023-06-22T01:46:15;22.80;99.90
16273;DHT22;8244;50.044;9.006;2023-06-22T01:51:19;22.80;99.90
16273;DHT22;8244;50.044;9.006;2023-06-22T01:56:21;22.70;99.90
16273;DHT22;8244;50.044;9.006;2023-06-22T02:01:30;22.30;99.90
16273;DHT22;8244;50.044;9.006;2023-06-22T02:06:36;22.00;99.90
16273;DHT22;8244;50.044;9.006;2023-06-22T02:11:41;21.80;99.90
16273;DHT22;8244;50.044;9.006;2023-06-22T02:16:47;21.80;99.90
16273;DHT22;8244;50.044;9.006;2023-06-22T02:21:49;21.90;99.90
16273;DHT22;8244;50.044;9.006;2023-06-22T02:26:51;22.00;99.90
16273;DHT22;8244;50.044;9.006;2023-06-22T02:31:54;22.00;99.90
16273;DHT22;8244;50.044;9.006;2023-06-22T02:36:56;22.00;99.90
16273;DHT22;8244;50.044;9.006;2023-06-22T02:42:00;22.00;99.90
16273;DHT22;8244;50.044;9.006;2023-06-22T02:47:04;22.00;99.90
16273;DHT22;8244;50.044;9.006;2023-06-22T02:52:06;22.00;99.90
16273;DHT22;8244;50.044;9.006;2023-06-22T02:57:08;21.90;99.90
16273;DHT22;8244;50.044;9.006;2023-06-22T03:02:15;21.90;99.90
16273;DHT22;8244;50.044;9.006;2023-06-22T03:07:16;21.90;99.90
16273;DHT22;8244;50.044;9.006;2023-06-22T03:12:18;21.80;99.90
16273;DHT22;8244;50.044;9.006;2023-06-22T03:17:22;21.80;99.90
16273;DHT22;8244;50.044;9.006;2023-06-22T03:22:23;21.80;99.90
16273;DHT22;8244;50.044;9.006;2023-06-22T03:27:25;21.70;99.90
16273;DHT22;8244;50.044;9.006;2023-06-22T03:32:28;21.70;99.90
16273;DHT22;8244;50.044;9.006;2023-06-22T03:37:30;21.60;99.90
16273;DHT22;8244;50.044;9.006;2023-06-22T03:42:33;21.60;99.90
16273;DHT22;8244;50.044;9.006;2023-06-22T03:47:37;21.50;99.90
16273;DHT22;8244;50.044;9.006;2023-06-22T03:52:39;21.60;99.90
16273;DHT22;8244;50.044;9.006;2023-06-22T03:57:41;21.50;99.90
16273;DHT22;8244;50.044;9.006;2023-06-22T04:02:44;21.50;99.90
16273;DHT22;8244;50.044;9.006;2023-06-22T04:07:45;21.50;99.90
16273;DHT22;8244;50.044;9.006;2023-06-22T04:12:47;21.60;99.90
16273;DHT22;8244;50.044;9.006;2023-06-22T04:17:50;21.70;99.90
16273;DHT22;8244;50.044;9.006;2023-06-22T04:22:52;21.80;99.90
16273;DHT22;8244;50.044;9.006;2023-06-22T04:27:55;21.90;99.90
16273;DHT22;8244;50.044;9.006;2023-06-22T04:32:58;22.00;99.90
16273;DHT22;8244;50.044;9.006;2023-06-22T04:38:00;22.10;99.90
16273;DHT22;8244;50.044;9.006;2023-06-22T04:43:04;22.10;99.90
16273;DHT22;8244;50.044;9.006;2023-06-22T04:48:08;22.20;99.90
16273;DHT22;8244;50.044;9.006;2023-06-22T04:53:10;22.30;99.90
16273;DHT22;8244;50.044;9.006;2023-06-22T04:58:13;22.40;99.90
16273;DHT22;8244;50.044;9.006;2023-06-22T05:03:16;22.60;99.90
16273;DHT22;8244;50.044;9.006;2023-06-22T05:08:19;22.70;99.90
16273;DHT22;8244;50.044;9.006;2023-06-22T05:13:20;22.80;99.90
16273;DHT22;8244;50.044;9.006;2023-06-22T05:18:28;22.90;99.90
16273;DHT22;8244;50.044;9.006;2023-06-22T05:23:30;23.10;99.90
16273;DHT22;8244;50.044;9.006;2023-06-22T05:28:32;23.30;99.90
16273;DHT22;8244;50.044;9.006;2023-06-22T05:33:36;23.80;99.90
16273;DHT22;8244;50.044;9.006;2023-06-22T05:38:37;24.50;99.90
16273;DHT22;8244;50.044;9.006;2023-06-22T05:43:39;25.20;99.90
16273;DHT22;8244;50.044;9.006;2023-06-22T05:48:42;25.90;99.90
16273;DHT22;8244;50.044;9.006;2023-06-22T05:53:44;26.60;99.90
16273;DHT22;8244;50.044;9.006;2023-06-22T05:58:49;27.30;99.90
16273;DHT22;8244;50.044;9.006;2023-06-22T06:03:53;28.10;99.90
16273;DHT22;8244;50.044;9.006;2023-06-22T06:08:55;28.80;99.90
16273;DHT22;8244;50.044;9.006;2023-06-22T06:14:00;29.40;99.90
16273;DHT22;8244;50.044;9.006;2023-06-22T06:19:03;30.10;99.90
16273;DHT22;8244;50.044;9.006;2023-06-22T06:24:05;30.70;99.90
16273;DHT22;8244;50.044;9.006;2023-06-22T06:29:07;31.20;99.90
16273;DHT22;8244;50.044;9.006;2023-06-22T06:34:10;31.60;99.90
16273;DHT22;8244;50.044;9.006;2023-06-22T06:39:12;32.10;99.60
16273;DHT22;8244;50.044;9.006;2023-06-22T06:44:13;32.30;99.00
16273;DHT22;8244;50.044;9.006;2023-06-22T06:49:16;32.90;96.60
16273;DHT22;8244;50.044;9.006;2023-06-22T06:54:18;33.50;94.60
16273;DHT22;8244;50.044;9.006;2023-06-22T06:59:21;33.70;92.50
16273;DHT22;8244;50.044;9.006;2023-06-22T07:04:24;34.10;91.20
16273;DHT22;8244;50.044;9.006;2023-06-22T07:09:26;34.50;91.40
16273;DHT22;8244;50.044;9.006;2023-06-22T07:14:27;34.80;90.00
16273;DHT22;8244;50.044;9.006;2023-06-22T07:19:32;35.10;89.10
16273;DHT22;8244;50.044;9.006;2023-06-22T07:24:34;35.60;88.50
16273;DHT22;8244;50.044;9.006;2023-06-22T07:29:35;36.10;82.30
16273;DHT22;8244;50.044;9.006;2023-06-22T07:34:39;36.10;84.70
16273;DHT22;8244;50.044;9.006;2023-06-22T07:39:41;36.40;83.90
16273;DHT22;8244;50.044;9.006;2023-06-22T07:44:43;36.80;80.40
16273;DHT22;8244;50.044;9.006;2023-06-22T07:49:46;36.90;78.10
16273;DHT22;8244;50.044;9.006;2023-06-22T07:54:48;36.50;76.90
16273;DHT22;8244;50.044;9.006;2023-06-22T07:59:50;35.90;77.00
16273;DHT22;8244;50.044;9.006;2023-06-22T08:04:53;35.40;77.90
16273;DHT22;8244;50.044;9.006;2023-06-22T08:09:55;35.30;78.20
16273;DHT22;8244;50.044;9.006;2023-06-22T08:14:56;35.30;79.10
16273;DHT22;8244;50.044;9.006;2023-06-22T08:20:00;35.10;77.70
16273;DHT22;8244;50.044;9.006;2023-06-22T08:25:02;35.40;77.60
16273;DHT22;8244;50.044;9.006;2023-06-22T08:30:05;35.70;77.20
16273;DHT22;8244;50.044;9.006;2023-06-22T08:35:09;35.80;76.30
16273;DHT22;8244;50.044;9.006;2023-06-22T08:40:11;35.90;77.30
16273;DHT22;8244;50.044;9.006;2023-06-22T08:45:14;36.20;73.30
16273;DHT22;8244;50.044;9.006;2023-06-22T08:50:17;35.80;74.60
16273;DHT22;8244;50.044;9.006;2023-06-22T08:55:19;35.60;74.30
16273;DHT22;8244;50.044;9.006;2023-06-22T09:00:21;35.60;73.80
16273;DHT22;8244;50.044;9.006;2023-06-22T09:05:24;36.20;73.00
16273;DHT22;8244;50.044;9.006;2023-06-22T09:10:26;36.30;71.50
16273;DHT22;8244;50.044;9.006;2023-06-22T09:15:28;36.30;74.10
16273;DHT22;8244;50.044;9.006;2023-06-22T09:20:31;37.40;70.70
16273;DHT22;8244;50.044;9.006;2023-06-22T09:25:33;38.30;68.30
16273;DHT22;8244;50.044;9.006;2023-06-22T09:30:35;37.90;68.90
16273;DHT22;8244;50.044;9.006;2023-06-22T09:35:38;37.50;67.80
16273;DHT22;8244;50.044;9.006;2023-06-22T09:40:40;37.10;69.70
16273;DHT22;8244;50.044;9.006;2023-06-22T09:45:41;37.00;70.90
16273;DHT22;8244;50.044;9.006;2023-06-22T09:50:44;37.40;67.70
16273;DHT22;8244;50.044;9.006;2023-06-22T09:55:46;37.50;68.70
16273;DHT22;8244;50.044;9.006;2023-06-22T10:00:48;37.80;68.50
16273;DHT22;8244;50.044;9.006;2023-06-22T10:05:57;37.60;67.50
16273;DHT22;8244;50.044;9.006;2023-06-22T10:11:01;37.00;68.70
16273;DHT22;8244;50.044;9.006;2023-06-22T10:16:03;37.20;67.20
16273;DHT22;8244;50.044;9.006;2023-06-22T10:21:06;37.10;68.20
16273;DHT22;8244;50.044;9.006;2023-06-22T10:26:08;37.50;70.00
16273;DHT22;8244;50.044;9.006;2023-06-22T10:31:10;38.40;65.70
16273;DHT22;8244;50.044;9.006;2023-06-22T10:36:13;38.30;65.50
16273;DHT22;8244;50.044;9.006;2023-06-22T10:41:15;37.70;66.80
16273;DHT22;8244;50.044;9.006;2023-06-22T10:46:17;37.40;67.60
16273;DHT22;8244;50.044;9.006;2023-06-22T10:51:20;38.10;65.90
16273;DHT22;8244;50.044;9.006;2023-06-22T10:56:21;39.00;64.90
16273;DHT22;8244;50.044;9.006;2023-06-22T11:01:23;39.20;63.70
16273;DHT22;8244;50.044;9.006;2023-06-22T11:06:28;39.10;63.80
16273;DHT22;8244;50.044;9.006;2023-06-22T11:11:30;38.90;63.40
16273;DHT22;8244;50.044;9.006;2023-06-22T11:16:32;38.70;64.20
16273;DHT22;8244;50.044;9.006;2023-06-22T11:21:36;39.00;63.00
16273;DHT22;8244;50.044;9.006;2023-06-22T11:26:38;39.00;64.00
16273;DHT22;8244;50.044;9.006;2023-06-22T11:31:39;39.00;63.00
16273;DHT22;8244;50.044;9.006;2023-06-22T11:36:44;38.60;66.20
16273;DHT22;8244;50.044;9.006;2023-06-22T11:41:47;39.10;64.00
16273;DHT22;8244;50.044;9.006;2023-06-22T11:46:49;38.90;64.40
16273;DHT22;8244;50.044;9.006;2023-06-22T11:51:52;39.40;63.30
16273;DHT22;8244;50.044;9.006;2023-06-22T11:56:54;39.60;63.40
16273;DHT22;8244;50.044;9.006;2023-06-22T12:01:57;39.80;61.90
16273;DHT22;8244;50.044;9.006;2023-06-22T12:07:01;39.70;61.90
16273;DHT22;8244;50.044;9.006;2023-06-22T12:12:03;39.80;61.00
16273;DHT22;8244;50.044;9.006;2023-06-22T12:17:05;39.70;62.60
16273;DHT22;8244;50.044;9.006;2023-06-22T12:22:08;39.90;61.20
16273;DHT22;8244;50.044;9.006;2023-06-22T12:27:10;39.50;62.10
16273;DHT22;8244;50.044;9.006;2023-06-22T12:32:12;40.00;60.80
16273;DHT22;8244;50.044;9.006;2023-06-22T12:37:15;40.70;60.60
16273;DHT22;8244;50.044;9.006;2023-06-22T12:42:17;40.50;59.60
16273;DHT22;8244;50.044;9.006;2023-06-22T12:47:18;39.90;61.40
16273;DHT22;8244;50.044;9.006;2023-06-22T12:52:22;39.60;62.80
16273;DHT22;8244;50.044;9.006;2023-06-22T12:57:24;39.30;62.50
16273;DHT22;8244;50.044;9.006;2023-06-22T13:02:26;39.20;62.00
16273;DHT22;8244;50.044;9.006;2023-06-22T13:07:29;39.20;62.30
16273;DHT22;8244;50.044;9.006;2023-06-22T13:12:31;39.20;62.80
16273;DHT22;8244;50.044;9.006;2023-06-22T13:17:33;39.40;62.70
16273;DHT22;8244;50.044;9.006;2023-06-22T13:22:36;39.40;61.50
16273;DHT22;8244;50.044;9.006;2023-06-22T13:27:40;39.40;62.90
16273;DHT22;8244;50.044;9.006;2023-06-22T13:32:42;39.60;62.30
16273;DHT22;8244;50.044;9.006;2023-06-22T13:37:45;40.00;61.50
16273;DHT22;8244;50.044;9.006;2023-06-22T13:42:47;40.50;59.80
16273;DHT22;8244;50.044;9.006;2023-06-22T13:47:48;40.50;59.10
16273;DHT22;8244;50.044;9.006;2023-06-22T13:52:51;40.40;59.20
16273;DHT22;8244;50.044;9.006;2023-06-22T13:57:56;40.20;59.70
16273;DHT22;8244;50.044;9.006;2023-06-22T14:03:01;40.00;58.90
16273;DHT22;8244;50.044;9.006;2023-06-22T14:08:04;39.90;59.40
16273;DHT22;8244;50.044;9.006;2023-06-22T14:13:05;39.70;60.10
16273;DHT22;8244;50.044;9.006;2023-06-22T14:18:07;39.70;61.00
16273;DHT22;8244;50.044;9.006;2023-06-22T14:23:10;39.90;59.20
16273;DHT22;8244;50.044;9.006;2023-06-22T14:28:12;39.90;59.40
16273;DHT22;8244;50.044;9.006;2023-06-22T14:33:13;39.90;59.00
16273;DHT22;8244;50.044;9.006;2023-06-22T14:38:16;40.20;58.40
16273;DHT22;8244;50.044;9.006;2023-06-22T14:43:18;39.70;59.40
16273;DHT22;8244;50.044;9.006;2023-06-22T14:48:20;39.80;60.00
16273;DHT22;8244;50.044;9.006;2023-06-22T14:53:23;39.70;60.10
16273;DHT22;8244;50.044;9.006;2023-06-22T14:58:24;39.80;59.50
16273;DHT22;8244;50.044;9.006;2023-06-22T15:03:26;39.80;58.80
16273;DHT22;8244;50.044;9.006;2023-06-22T15:08:30;39.40;58.10
16273;DHT22;8244;50.044;9.006;2023-06-22T15:13:33;39.10;58.80
16273;DHT22;8244;50.044;9.006;2023-06-22T15:18:36;38.50;60.30
16273;DHT22;8244;50.044;9.006;2023-06-22T15:23:39;38.30;61.90
16273;DHT22;8244;50.044;9.006;2023-06-22T15:28:41;38.10;62.10
16273;DHT22;8244;50.044;9.006;2023-06-22T15:33:43;37.90;62.80
16273;DHT22;8244;50.044;9.006;2023-06-22T15:38:46;37.60;63.10
16273;DHT22;8244;50.044;9.006;2023-06-22T15:43:48;37.30;63.60
16273;DHT22;8244;50.044;9.006;2023-06-22T15:48:50;37.10;63.70
16273;DHT22;8244;50.044;9.006;2023-06-22T15:53:53;36.70;63.60
16273;DHT22;8244;50.044;9.006;2023-06-22T15:58:54;36.40;64.50
16273;DHT22;8244;50.044;9.006;2023-06-22T16:03:57;36.00;63.80
16273;DHT22;8244;50.044;9.006;2023-06-22T16:09:00;35.70;64.80
16273;DHT22;8244;50.044;9.006;2023-06-22T16:14:02;35.50;64.10
16273;DHT22;8244;50.044;9.006;2023-06-22T16:19:03;35.30;63.60
16273;DHT22;8244;50.044;9.006;2023-06-22T16:24:07;35.20;63.90
16273;DHT22;8244;50.044;9.006;2023-06-22T16:29:09;35.10;64.70
16273;DHT22;8244;50.044;9.006;2023-06-22T16:34:11;34.90;66.30
16273;DHT22;8244;50.044;9.006;2023-06-22T16:39:14;34.90;67.00
16273;DHT22;8244;50.044;9.006;2023-06-22T16:44:16;34.60;67.10
16273;DHT22;8244;50.044;9.006;2023-06-22T16:49:17;34.30;67.00
16273;DHT22;8244;50.044;9.006;2023-06-22T16:54:21;34.10;68.00
16273;DHT22;8244;50.044;9.006;2023-06-22T16:59:23;33.60;70.30
16273;DHT22;8244;50.044;9.006;2023-06-22T17:04:27;32.90;71.90
16273;DHT22;8244;50.044;9.006;2023-06-22T17:09:32;32.60;73.60
16273;DHT22;8244;50.044;9.006;2023-06-22T17:14:37;32.40;74.10
16273;DHT22;8244;50.044;9.006;2023-06-22T17:19:40;32.30;74.50
16273;DHT22;8244;50.044;9.006;2023-06-22T17:24:43;32.10;75.10
16273;DHT22;8244;50.044;9.006;2023-06-22T17:29:45;31.80;75.80
16273;DHT22;8244;50.044;9.006;2023-06-22T17:34:52;31.70;76.20
16273;DHT22;8244;50.044;9.006;2023-06-22T17:39:56;31.30;76.30
16273;DHT22;8244;50.044;9.006;2023-06-22T17:45:01;31.10;76.40
16273;DHT22;8244;50.044;9.006;2023-06-22T17:50:04;30.90;77.10
16273;DHT22;8244;50.044;9.006;2023-06-22T17:55:11;30.40;78.90
16273;DHT22;8244;50.044;9.006;2023-06-22T18:00:14;30.10;80.10
16273;DHT22;8244;50.044;9.006;2023-06-22T18:05:16;29.90;79.60
16273;DHT22;8244;50.044;9.006;2023-06-22T18:10:19;29.80;79.30
16273;DHT22;8244;50.044;9.006;2023-06-22T18:15:22;29.80;79.80
16273;DHT22;8244;50.044;9.006;2023-06-22T18:20:25;29.80;78.00
16273;DHT22;8244;50.044;9.006;2023-06-22T18:25:31;29.80;78.10
16273;DHT22;8244;50.044;9.006;2023-06-22T18:30:34;29.80;78.80
16273;DHT22;8244;50.044;9.006;2023-06-22T18:35:37;29.90;78.70
16273;DHT22;8244;50.044;9.006;2023-06-22T18:40:48;29.90;80.40
16273;DHT22;8244;50.044;9.006;2023-06-22T18:45:50;29.70;81.40
16273;DHT22;8244;50.044;9.006;2023-06-22T18:50:53;29.60;82.10
16273;DHT22;8244;50.044;9.006;2023-06-22T18:56:11;29.40;82.50
16273;DHT22;8244;50.044;9.006;2023-06-22T19:01:17;29.30;83.40
16273;DHT22;8244;50.044;9.006;2023-06-22T19:06:54;29.10;83.90
16273;DHT22;8244;50.044;9.006;2023-06-22T19:12:18;29.00;84.70
16273;DHT22;8244;50.044;9.006;2023-06-22T19:17:21;28.80;85.90
16273;DHT22;8244;50.044;9.006;2023-06-22T19:22:25;28.50;87.50
16273;DHT22;8244;50.044;9.006;2023-06-22T19:27:46;28.30;89.20
16273;DHT22;8244;50.044;9.006;2023-06-22T19:32:48;28.10;90.00
16273;DHT22;8244;50.044;9.006;2023-06-22T19:37:50;27.90;90.00
16273;DHT22;8244;50.044;9.006;2023-06-22T19:42:54;27.70;90.20
16273;DHT22;8244;50.044;9.006;2023-06-22T19:47:56;27.50;88.20
16273;DHT22;8244;50.044;9.006;2023-06-22T19:52:58;27.30;87.10
16273;DHT22;8244;50.044;9.006;2023-06-22T19:58:01;27.20;87.20
16273;DHT22;8244;50.044;9.006;2023-06-22T20:03:07;27.10;87.30
16273;DHT22;8244;50.044;9.006;2023-06-22T20:08:13;27.10;87.50
16273;DHT22;8244;50.044;9.006;2023-06-22T20:13:19;27.00;87.50
16273;DHT22;8244;50.044;9.006;2023-06-22T20:18:22;27.00;88.00
16273;DHT22;8244;50.044;9.006;2023-06-22T20:23:24;27.00;88.30
16273;DHT22;8244;50.044;9.006;2023-06-22T20:28:27;26.90;89.10
16273;DHT22;8244;50.044;9.006;2023-06-22T20:33:28;26.80;89.50
16273;DHT22;8244;50.044;9.006;2023-06-22T20:38:30;26.70;89.80
16273;DHT22;8244;50.044;9.006;2023-06-22T20:43:35;26.60;90.20
16273;DHT22;8244;50.044;9.006;2023-06-22T20:48:36;26.50;90.60
16273;DHT22;8244;50.044;9.006;2023-06-22T20:53:38;26.30;91.00
16273;DHT22;8244;50.044;9.006;2023-06-22T20:58:41;26.10;91.60
16273;DHT22;8244;50.044;9.006;2023-06-22T21:03:43;25.90;91.80
16273;DHT22;8244;50.044;9.006;2023-06-22T21:08:45;25.70;91.90
16273;DHT22;8244;50.044;9.006;2023-06-22T21:13:48;25.40;92.20
16273;DHT22;8244;50.044;9.006;2023-06-22T21:18:50;25.20;92.50
16273;DHT22;8244;50.044;9.006;2023-06-22T21:23:53;25.00;93.00
16273;DHT22;8244;50.044;9.006;2023-06-22T21:28:56;24.90;93.20
16273;DHT22;8244;50.044;9.006;2023-06-22T21:33:58;24.80;93.50
16273;DHT22;8244;50.044;9.006;2023-06-22T21:38:59;24.60;93.60
16273;DHT22;8244;50.044;9.006;2023-06-22T21:44:03;24.30;93.90
16273;DHT22;8244;50.044;9.006;2023-06-22T21:49:04;24.10;94.40
16273;DHT22;8244;50.044;9.006;2023-06-22T21:54:06;24.00;95.00
16273;DHT22;8244;50.044;9.006;2023-06-22T21:59:09;23.90;94.80
16273;DHT22;8244;50.044;9.006;2023-06-22T22:04:11;23.90;95.10
16273;DHT22;8244;50.044;9.006;2023-06-22T22:09:15;23.80;95.40
16273;DHT22;8244;50.044;9.006;2023-06-22T22:14:18;23.70;95.90
16273;DHT22;8244;50.044;9.006;2023-06-22T22:19:20;23.70;96.20
16273;DHT22;8244;50.044;9.006;2023-06-22T22:24:21;23.80;96.30
16273;DHT22;8244;50.044;9.006;2023-06-22T22:29:24;23.80;96.70
16273;DHT22;8244;50.044;9.006;2023-06-22T22:34:28;23.70;97.10
16273;DHT22;8244;50.044;9.006;2023-06-22T22:39:31;23.50;97.80
16273;DHT22;8244;50.044;9.006;2023-06-22T22:44:36;23.50;98.30
16273;DHT22;8244;50.044;9.006;2023-06-22T22:49:38;23.40;98.70
16273;DHT22;8244;50.044;9.006;2023-06-22T22:54:39;23.40;99.10
16273;DHT22;8244;50.044;9.006;2023-06-22T22:59:44;23.40;99.90
16273;DHT22;8244;50.044;9.006;2023-06-22T23:04:53;23.10;99.90
16273;DHT22;8244;50.044;9.006;2023-06-22T23:09:55;23.10;99.90
16273;DHT22;8244;50.044;9.006;2023-06-22T23:14:59;23.00;99.90
16273;DHT22;8244;50.044;9.006;2023-06-22T23:20:01;23.00;99.90
16273;DHT22;8244;50.044;9.006;2023-06-22T23:25:05;22.90;99.90
16273;DHT22;8244;50.044;9.006;2023-06-22T23:30:10;22.90;99.90
16273;DHT22;8244;50.044;9.006;2023-06-22T23:35:12;23.00;99.90
16273;DHT22;8244;50.044;9.006;2023-06-22T23:40:14;22.80;99.90
16273;DHT22;8244;50.044;9.006;2023-06-22T23:45:19;22.60;99.90
16273;DHT22;8244;50.044;9.006;2023-06-22T23:50:22;22.40;99.90
16273;DHT22;8244;50.044;9.006;2023-06-22T23:55:24;22.30;99.90
